航空気象通報

ウインドサーファーのための航空気象通報による風予報です。

12/31-1/2の航空気象通報

2016年12月31日 21時47分24秒 | TAF
羽田空港
TAF RJTT 311105Z 3112/0118 34005KT 9999 FEW030
日本時間31日21時-2日03時:340度から5ノットの風


静岡空港
TAF RJNS 311106Z 3112/0118 34005KT 9999 FEW030
  BECMG 3122/3124 26010KT
  BECMG 0112/0115 32005KT
日本時間31日21時-1日07時:340度から5ノットの風
07-09時:風が変化
09-21時:260度から10ノットの風
21-24時:風が変化
2日00-03時:320度から5ノットの風


福岡空港
TAF RJFF 311106Z 3112/0118 15003KT 9999 FEW030
  BECMG 0100/0103 32005KT
  BECMG 0109/0112 15005KT
日本時間31日21時-1日09時:150度から3ノットの風
09-12時:風が変化
12-18時:320度から5ノットの風
18-21時:風が変化
21時-2日03時:150度から5ノットの風


那覇空港
TAF ROAH 311106Z 3112/0118 03009KT 9999 FEW030 SCT045
  BECMG 0112/0115 11006KT
日本時間31日21時-1日21時:030度から9ノットの風
21-24時:風が変化
2日00-03時:110度から6ノットの風


石垣空港
TAF ROIG 311108Z 3112/0118 06013KT 9999 SCT030 BKN045
日本時間31日21時-2日03時:060度から13ノットの風


マウイのカフルイ空港
PHOG 311135Z 3112/0112 04014KT P6SM -SHRA FEW010 BKN015 OVC035
  TEMPO 3112/3116 2SM -SHRA SCT008 OVC015
  FM312000 03014G20KT P6SM VCSH FEW010 SCT020 BKN060
  FM010500 03010KT P6SM SCT020 BKN060 AMD LTD TO VIS AND WIND TIL 311600
ハワイ時間31日02-10時:040度から14ノットの風

10-19時:030度から13ノット、突風20ノット
19時-1日02時:030度から10ノットの風


サイパン空港
TAF PGSN 311120Z 3112/0112 07012KT P6SM VCSH SCT025 SCT040
  FM312200 07018KT P6SM VCSH SCT020 SCT040
マリアナ時間31日22時-1日08時:070度から12ノットの風
08-22時:070度から18ノットの風
コメント
この記事をはてなブックマークに追加

12/30-1/1の航空気象通報

2016年12月30日 23時08分52秒 | TAF
羽田空港
TAF RJTT 301105Z 3012/3118 34006KT 9999 FEW030
BECMG 3100/3103 08004KT
BECMG 3106/3109 34006KT
日本時間30日21時-31日09時:340度から6ノットの風
09-12時:風が変化
12-15時:080度から4ノットの風
15-18時:風が変化
18時-1日03時:340度から6ノットの風


静岡空港
TAF RJNS 301106Z 3012/3118 30004KT 9999 FEW030
BECMG 3020/3022 26014KT
TEMPO 3100/3109 26020G30KT
日本時間30日21時-31日05時:300度から4ノットの風
05-07時:風が変化
07時-1日03時:260度から14ノットの風
但し、31日09-18時の間:ときどき260度から20ノット、突風30ノット


福岡空港
TAF RJFF 301107Z 3012/3118 15006KT 9999 FEW035
BECMG 3100/3103 31006KT
BECMG 3109/3112 15008KT
日本時間30日21時-31日09時:150度から6ノットの風
09-12時:風が変化
12-18時:310度から6ノットの風
18-21時:風が変化
21時-1日03時:150度から8ノットの風


那覇空港
TAF ROAH 301106Z 3012/3118 03009KT 9999 FEW030 SCT045
日本時間30日21時-1日03時:030度から9ノットの風


石垣空港
TAF ROIG 301109Z 3012/3118 06011KT 9999 SCT030 BKN045
日本時間30日21時-1日03時:060度から11ノットの風


マウイのカフルイ空港
PHOG 301131Z 3012/3112 03012KT P6SM VCSH SCT020 BKN060
TEMPO 3012/3016 5SM -SHRA BKN020
FM302000 04014G22KT P6SM VCSH SCT025 BKN060
FM310500 04011KT P6SM SCT025 BKN060 AMD LTD TO VIS AND WIND TIL 301600
ハワイ時間30日02-10時:030度から12ノットの風
10-19時:040度から14ノット、突風22ノット
19時-31日02時:040度から11ノットの風

但し、30日02-06時の間:ときどき

サイパン空港
TAF PGSN 301121Z 3012/3112 07014KT P6SM VCSH SCT025 SCT050 BKN110
マリアナ時間30日22時-31日22時:070度から14ノットの風

コメント
この記事をはてなブックマークに追加

12/29-12/31の航空気象通報

2016年12月29日 22時35分38秒 | TAF
羽田空港
TAF RJTT 291105Z 2912/3018 32008KT 9999 FEW030
BECMG 2912/2914 34018KT
TEMPO 2914/2920 34020G30KT
BECMG 3012/3015 36006KT
日本時間29日21時:320度から8ノットの風
21-23時:風が変化
23時-30日21時:340度から18ノットの風
但し、29日23時-30日05時の間:ときどき340度から20ノット、突風30ノット
30日21-24時:風が変化
31日00-03時:360度から6ノットの風


静岡空港
TAF RJNS 291105Z 2912/3018 27014KT 9999 FEW030
日本時間29日21時-31日03時:270度から14ノットの風


福岡空港
TAF RJFF 291107Z 2912/3018 33010KT 9999 FEW030
BECMG 3009/3012 15006KT
日本時間29日21時-30日18時:330度から10ノットの風
18-21時:風が変化
21時-31日03時:150度から6ノットの風


那覇空港
TAF ROAH 291105Z 2912/3018 02018KT 9999 FEW030 BKN045
BECMG 3009/3012 05007KT
日本時間29日21時-30日18時:020度から18ノットの風
18-21時:風が変化
21時-31日03時:050度から7ノットの風


石垣空港
TAF ROIG 291107Z 2912/3018 04018KT 9999 FEW025 BKN045
日本時間29日21時-31日03時:040度から18ノットの風


マウイのカフルイ空港
PHOG 291301Z 2913/3012 04011KT P6SM VCSH FEW030 SCT050
FM292000 05018G28KT P6SM FEW030 SCT050
FM300500 05010G15KT P6SM VCSH FEW030 BKN050
ハワイ時間29日02-10時:040度から11ノットの風
10-19時:050度から18ノット、突風28ノット

19時-30日02時:050度から10ノット、突風15ノット


サイパン空港
TAF PGSN 291124Z 2912/3012 05014KT P6SM VCSH SCT018 BKN110
マリアナ時間29日22時-30日22時:050度から14ノットの風
コメント
この記事をはてなブックマークに追加

12/28-12/30の航空気象通報

2016年12月28日 23時14分36秒 | TAF
羽田空港
TAF RJTT 281105Z 2812/2918 05010KT 9999 FEW030 SCT050
BECMG 2816/2818 35004KT
BECMG 2900/2903 21020KT
TEMPO 2900/2906 21022G34KT
BECMG 2909/2912 31008KT
日本時間28日21時-29日01時:050度から10ノットの風
01-03時:風が変化
03-09時:350度から4ノットの風
09-12時:風が変化
12-18時:210度から20ノットの風
但し、29日09-15時の間:ときどき210度から22ノット、突風34ノット
18-21時:風が変化
21時-30日03時:310度から8ノットの風


静岡空港
TAF RJNS 281109Z 2812/2918 32006KT 9999 FEW020 BKN040
BECMG 2900/2903 26016KT
TEMPO 2903/2909 26018G28KT
日本時間28日21時-29日09時:320度から6ノットの風
09-12時:風が変化
12時-30日03時:260度から16ノットの風
但し、29日12-18時の間:ときどき260度から18ノット、突風28ノット


福岡空港
TAF RJFF 281105Z 2812/2918 15007KT 9999 FEW030 SCT040
BECMG 2822/2824 33010KT
日本時間29日21時-30日07時:150度から7ノットの風
07-09時:風が変化
09時-30日03時:330度から10ノットの風


那覇空港
TAF ROAH 281108Z 2812/2918 03008KT 9999 FEW035 BKN045
BECMG 2903/2906 01020KT
日本時間28日21時-29日12時:030度から8ノットの風
12-15時:風が変化
15時-30日03時:010度から20ノットの風


石垣空港
TAF ROIG 281111Z 2812/2918 03012KT 9999 FEW020 BKN040
TEMPO 2814/2816 4000 RA
TEMPO 2900/2912 02022G32KT
日本時間28日21時-30日03時:030度から12ノットの風
但し、29日09-21時の間:ときどき020度から22ノット、突風32ノット

但し、28日23時-29日01時の間:ときどき

マウイのカフルイ空港
PHOG 281132Z 2812/2912 06010G16KT P6SM VCSH FEW025 BKN045
FM281900 06016G26KT P6SM VCSH FEW030 BKN050
FM282100 06020G30KT P6SM FEW030 SCT050
FM290400 06014G24KT P6SM FEW030 SCT050
ハワイ時間28日02-09時:060度から10ノット、突風16ノット
09-11時:060度から16ノット、突風26ノット

11-18時:060度から20ノット、突風30ノット
18時-29日02時:060度から14ノット、突風24ノット


サイパン空港
TAF PGSN 281125Z 2812/2912 06012KT P6SM VCSH SCT018
マリアナ時間28日22時-29日22時:060度から12ノットの風

コメント
この記事をはてなブックマークに追加

12/27-12/29の航空気象通報

2016年12月27日 23時48分16秒 | TAF
羽田空港
TAF AMD RJTT 271340Z 2713/2818 07014KT 9999 FEW030
BECMG 2715/2717 33018KT
TEMPO 2716/2718 33024G34KT
BECMG 2809/2812 04009KT
BECMG 2812/2815 12005KT
日本時間27日21-24時:070度から14ノットの風
28日00-02時:風が変化
02-18時:330度から18ノットの風
18-21時:風が変化
21時:040度から9ノットの風
21-24時:風が変化
29日00-03時:120度から9ノットの風


静岡空港
TAF RJNS 271105Z 2712/2818 27010KT 9999 FEW030
BECMG 2800/2803 18006KT
BECMG 2809/2812 32005KT
日本時間27日21時-28日09時:270度から10ノットの風
09-12時:風が変化
12-18時:180度から6ノットの風
18-21時:風が変化
21時-29日03時:320度から5ノットの風


福岡空港
TAF RJFF 271111Z 2712/2818 33015KT 9999 FEW025 SCT045
TEMPO 2712/2716 33015G25KT
BECMG 2718/2720 04005KT
BECMG 2809/2812 14006KT
日本時間27日21時-28日03時:330度から15ノットの風
03-05時:風が変化
05-18時:040度から5ノットの風
18-21時:風が変化
21時-29日03時:140度から6ノットの風


那覇空港
TAF ROAH 271105Z 2712/2818 36023KT 9999 FEW020 BKN035
TEMPO 2712/2715 36028G38KT
BECMG 2800/2803 04010KT
日本時間27日21時-28日09時:360度から23ノットの風
但し、27日21-24時の間:ときどき360度から28ノット、突風38ノット
28日09-12時:風が変化
12時-29日03時:040度から10ノットの風


石垣空港
TAF ROIG 271107Z 2712/2818 02020KT 9999 -RA SCT020 BKN035
TEMPO 2712/2721 02023G33KT
日本時間27日21時-29日03時:020度から20ノットの風
但し、27日21時-28日06時の間:ときどき020度から20ノット、突風33ノット


マウイのカフルイ空港
PHOG 271136Z 2712/2812 06015G23KT P6SM VCSH SCT030 SCT050
FM272100 06022G32KT P6SM FEW030 SCT060
FM280400 06012G20KT P6SM VCSH FEW030 SCT060 AMD LTD TO VIS AND WIND TIL 271600
ハワイ時間27日02-11時:060度から15ノット、突風23ノット
11-18時:060度から22ノット、突風32ノット
18時-29日02時:060度から12ノット、突風20ノット


サイパン空港
TAF PGSN 271120Z 2712/2812 09008KT P6SM SCT020
マリアナ時間27日22時-29日22時:090度から8ノットの風

コメント
この記事をはてなブックマークに追加